createdAt,value
2022-08-26T03:46:47.781Z,80.27
2022-08-26T03:49:51.894Z,80.27
2022-08-26T03:52:55.261Z,80.72
2022-08-26T03:55:57.998Z,80.87
2022-08-26T03:59:01.018Z,80.98
2022-08-26T04:02:08.608Z,81.27
2022-08-26T04:05:16.019Z,81.34
2022-08-26T04:08:18.417Z,81.15
2022-08-26T04:11:22.830Z,80.90
2022-08-26T04:14:27.863Z,80.51
2022-08-26T04:17:31.889Z,80.57
2022-08-26T04:20:34.396Z,80.47
2022-08-26T04:23:47.538Z,80.38
2022-08-26T04:26:51.002Z,79.86
2022-08-26T04:29:55.252Z,78.46
2022-08-26T04:33:01.312Z,77.37
2022-08-26T04:36:05.456Z,77.41
2022-08-26T04:39:07.848Z,77.05
2022-08-26T04:42:10.569Z,77.70
2022-08-26T04:45:14.102Z,78.40
2022-08-26T04:48:16.999Z,78.55
2022-08-26T04:51:27.253Z,77.59
2022-08-26T04:54:31.080Z,77.76
2022-08-26T04:57:33.886Z,77.43
2022-08-26T05:00:36.696Z,76.58
2022-08-26T05:03:39.314Z,76.15
2022-08-26T05:06:43.631Z,75.46
2022-08-26T05:09:46.001Z,74.90
2022-08-26T05:12:48.625Z,75.75
2022-08-26T05:15:51.881Z,75.59
2022-08-26T05:18:55.158Z,74.03
2022-08-26T05:21:57.555Z,73.11
2022-08-26T05:25:01.591Z,71.46
2022-08-26T05:28:04.555Z,71.03
2022-08-26T05:31:17.054Z,68.17
2022-08-26T05:34:23.334Z,67.44
2022-08-26T05:37:28.633Z,66.26
2022-08-26T05:40:36.698Z,65.75
2022-08-26T05:43:39.450Z,66.19
2022-08-26T05:46:44.679Z,65.08
2022-08-26T05:49:51.610Z,65.08
2022-08-26T05:52:54.323Z,64.20
2022-08-26T05:55:58.848Z,64.11
2022-08-26T05:59:02.879Z,63.26
2022-08-26T06:02:07.416Z,62.66
2022-08-26T06:05:10.670Z,62.54
2022-08-26T06:08:14.432Z,61.78
2022-08-26T06:11:20.581Z,61.12
2022-08-26T06:14:23.118Z,60.64
2022-08-26T06:17:25.838Z,59.66
2022-08-26T06:20:31.645Z,58.03
2022-08-26T06:23:53.338Z,57.45
2022-08-26T06:26:58.114Z,57.20
2022-08-26T06:30:00.725Z,57.07
2022-08-26T06:33:03.113Z,56.83
2022-08-26T06:36:08.224Z,56.02
2022-08-26T06:39:14.282Z,55.81
2022-08-26T06:42:16.867Z,55.42
2022-08-26T06:45:22.467Z,55.20
2022-08-26T06:48:25.394Z,54.09
2022-08-26T06:51:32.772Z,53.96
2022-08-26T06:54:38.877Z,52.78
2022-08-26T06:57:41.294Z,52.80
2022-08-26T07:00:47.497Z,52.03
2022-08-26T07:03:54.836Z,49.37
2022-08-26T07:07:00.176Z,49.76
2022-08-26T07:10:02.458Z,48.55
2022-08-26T07:13:05.962Z,47.87
2022-08-26T07:16:13.615Z,48.16
2022-08-26T07:19:29.939Z,44.66
2022-08-26T07:22:34.364Z,43.15
2022-08-26T07:25:41.739Z,45.06
2022-08-26T07:28:46.239Z,48.38
2022-08-26T07:31:48.907Z,46.67
2022-08-26T07:34:51.488Z,45.20
2022-08-26T07:37:57.081Z,45.17
2022-08-26T07:41:01.978Z,45.74
2022-08-26T07:44:04.697Z,45.60
2022-08-26T07:47:25.195Z,45.10
2022-08-26T07:50:48.852Z,44.44
2022-08-26T07:53:52.428Z,45.54
2022-08-26T07:56:56.169Z,44.16
2022-08-26T07:59:59.427Z,44.01
2022-08-26T08:03:05.683Z,43.50
2022-08-26T08:06:09.626Z,43.82
2022-08-26T08:09:13.928Z,44.53
2022-08-26T08:12:19.984Z,45.16
2022-08-26T08:15:27.687Z,44.62
2022-08-26T08:18:30.373Z,44.63
2022-08-26T08:21:32.808Z,43.32
2022-08-26T08:24:35.751Z,43.60
2022-08-26T08:27:38.586Z,46.03
2022-08-26T08:30:41.287Z,43.93
2022-08-26T08:33:43.646Z,42.81
2022-08-26T08:36:47.290Z,41.08
2022-08-26T08:39:50.111Z,41.24
2022-08-26T08:43:06.100Z,43.35
2022-08-26T08:46:12.640Z,44.99
2022-08-26T08:49:15.497Z,44.50
2022-08-26T08:52:29.895Z,45.13
2022-08-26T08:55:59.306Z,39.28
2022-08-26T08:59:18.282Z,41.20
2022-08-26T09:02:46.213Z,41.49
2022-08-26T09:05:52.479Z,40.19
2022-08-26T09:08:58.366Z,38.43
2022-08-26T09:12:02.529Z,39.73
2022-08-26T09:15:18.763Z,40.80
2022-08-26T09:18:49.075Z,37.43
2022-08-26T09:21:57.784Z,38.13
2022-08-26T09:25:00.357Z,37.14
2022-08-26T09:28:12.159Z,36.18
2022-08-26T09:31:25.577Z,35.20
2022-08-26T09:34:30.931Z,35.62
2022-08-26T09:41:05.093Z,35.39
2022-08-26T09:44:14.678Z,35.60
2022-08-26T09:47:25.160Z,33.04
2022-08-26T09:50:30.923Z,33.42
2022-08-26T09:53:39.878Z,33.27
2022-08-26T09:56:46.396Z,33.19
2022-08-26T09:59:49.505Z,32.00
2022-08-26T10:02:54.765Z,32.25
2022-08-26T10:06:13.326Z,32.52
2022-08-26T10:09:18.259Z,31.40
2022-08-26T10:12:22.916Z,32.67
2022-08-26T10:15:27.822Z,31.52
2022-08-26T10:18:35.575Z,30.72
2022-08-26T10:21:52.256Z,31.70
2022-08-26T10:25:00.911Z,30.08
2022-08-26T10:28:20.505Z,30.54
2022-08-26T10:31:40.146Z,31.08
2022-08-26T10:34:44.267Z,30.49
2022-08-26T10:37:55.841Z,31.18
2022-08-26T10:41:09.749Z,30.07
2022-08-26T10:44:18.152Z,31.34
2022-08-26T10:47:52.902Z,30.53
2022-08-26T10:50:56.725Z,28.52
2022-08-26T10:54:07.352Z,31.12
2022-08-26T10:57:14.861Z,30.59
2022-08-26T11:00:41.292Z,28.58
2022-08-26T11:03:58.952Z,28.99
2022-08-26T11:07:40.460Z,27.39
2022-08-26T11:10:43.183Z,28.35
2022-08-26T11:13:58.718Z,27.61
2022-08-26T11:17:02.174Z,26.81
2022-08-26T11:20:09.221Z,26.65
2022-08-26T11:23:22.430Z,26.84
2022-08-26T11:26:55.274Z,27.46
2022-08-26T11:30:23.048Z,28.16
2022-08-26T11:34:00.159Z,26.96
2022-08-26T11:37:13.547Z,28.11
2022-08-26T11:40:21.137Z,28.31
2022-08-26T11:43:30.431Z,27.26
2022-08-26T11:46:37.304Z,27.87
2022-08-26T11:49:40.027Z,28.05
2022-08-26T11:53:01.949Z,28.07
2022-08-26T11:56:31.802Z,28.52
2022-08-26T11:59:39.041Z,28.42
2022-08-26T12:02:43.052Z,29.06
2022-08-26T12:05:49.610Z,29.63
2022-08-26T12:08:55.486Z,27.67
2022-08-26T12:12:12.097Z,28.21
2022-08-26T12:15:19.759Z,26.90
2022-08-26T12:18:28.957Z,27.40
2022-08-26T12:21:34.825Z,27.44
2022-08-26T12:24:47.557Z,28.76
2022-08-26T12:27:53.795Z,27.29
2022-08-26T12:31:06.089Z,26.20
2022-08-26T12:34:15.883Z,26.34
2022-08-26T12:37:21.296Z,26.46
2022-08-26T12:40:43.252Z,27.38
2022-08-26T12:43:46.021Z,26.01
2022-08-26T12:46:49.844Z,26.11
2022-08-26T12:50:20.075Z,26.82
2022-08-26T12:53:30.930Z,26.20
2022-08-26T12:56:39.070Z,26.04
2022-08-26T12:59:41.461Z,26.59
2022-08-26T13:02:44.144Z,26.39
2022-08-26T13:05:46.638Z,27.55
2022-08-26T13:08:51.743Z,26.19
2022-08-26T13:11:54.033Z,26.57
2022-08-26T13:14:58.764Z,26.11
2022-08-26T13:18:01.213Z,26.23
2022-08-26T13:21:18.501Z,26.77
2022-08-26T13:24:41.126Z,26.00
2022-08-26T13:27:44.404Z,25.17
2022-08-26T13:30:49.597Z,25.72
2022-08-26T13:33:52.267Z,26.46
2022-08-26T13:36:56.297Z,26.56
2022-08-26T13:39:58.975Z,25.94
2022-08-26T13:43:01.454Z,25.92
2022-08-26T13:46:04.374Z,26.24
2022-08-26T13:49:07.557Z,27.02
2022-08-26T13:52:12.511Z,27.27
2022-08-26T13:55:16.330Z,27.72
2022-08-26T13:58:19.162Z,26.95
2022-08-26T14:01:21.552Z,26.89
2022-08-26T14:04:27.236Z,26.68
2022-08-26T14:07:29.931Z,26.28
2022-08-26T14:10:33.020Z,27.27
2022-08-26T14:13:36.152Z,26.69
2022-08-26T14:16:58.966Z,26.54
2022-08-26T14:20:03.363Z,27.25
2022-08-26T14:23:14.384Z,26.77
2022-08-26T14:26:26.609Z,27.21
2022-08-26T14:29:34.571Z,28.14
2022-08-26T14:32:41.331Z,26.73
2022-08-26T14:35:47.886Z,26.67
2022-08-26T14:38:51.228Z,26.26
2022-08-26T14:41:56.279Z,27.02
2022-08-26T14:45:01.687Z,25.94
2022-08-26T14:48:04.865Z,26.24
2022-08-26T14:51:07.379Z,26.29
2022-08-26T14:54:11.837Z,26.31
2022-08-26T14:57:15.264Z,26.29
2022-08-26T15:00:20.450Z,27.01
2022-08-26T15:03:23.020Z,26.87
2022-08-26T15:06:26.389Z,26.71
2022-08-26T15:09:31.946Z,27.14
2022-08-26T15:12:34.740Z,27.29
2022-08-26T15:15:37.944Z,26.95
2022-08-26T15:18:41.258Z,27.44
2022-08-26T15:21:45.502Z,27.85
